createdAt,value
2023-04-13T00:00:36.050Z,94.71
2023-04-13T00:01:36.038Z,94.40
2023-04-13T00:02:36.164Z,94.60
2023-04-13T00:03:36.193Z,94.60
2023-04-13T00:04:35.984Z,94.60
2023-04-13T00:05:43.224Z,94.40
2023-04-13T00:06:35.987Z,94.92
2023-04-13T00:07:35.953Z,94.81
2023-04-13T00:08:35.944Z,94.51
2023-04-13T00:09:35.953Z,94.51
2023-04-13T00:10:35.931Z,95.12
2023-04-13T00:11:35.910Z,94.60
2023-04-13T00:12:43.179Z,94.51
2023-04-13T00:13:36.018Z,94.81
2023-04-13T00:14:36.106Z,94.30
2023-04-13T00:15:35.969Z,94.60
2023-04-13T00:16:35.916Z,94.30
2023-04-13T00:17:35.987Z,94.40
2023-04-13T00:18:35.929Z,94.60
2023-04-13T00:19:35.852Z,94.60
2023-04-13T00:20:35.838Z,94.71
2023-04-13T00:21:35.801Z,94.30
2023-04-13T00:22:35.822Z,94.81
2023-04-13T00:23:35.909Z,95.02
2023-04-13T00:24:35.782Z,94.81
2023-04-13T00:25:44.681Z,94.20
2023-04-13T00:26:35.740Z,94.40
2023-04-13T00:27:35.731Z,94.30
2023-04-13T00:28:35.728Z,94.30
2023-04-13T00:29:35.726Z,94.40
2023-04-13T00:30:35.731Z,94.71
2023-04-13T00:31:35.686Z,94.81
2023-04-13T00:32:35.732Z,93.99
2023-04-13T00:33:35.654Z,94.71
2023-04-13T00:34:35.644Z,93.99
2023-04-13T00:35:35.652Z,94.20
2023-04-13T00:36:35.629Z,93.99
2023-04-13T00:37:35.610Z,94.20
2023-04-13T00:38:35.604Z,94.09
2023-04-13T00:39:35.602Z,94.45
2023-04-13T00:40:35.597Z,94.30
2023-04-13T00:41:35.590Z,93.99
2023-04-13T00:42:35.558Z,94.45
2023-04-13T00:43:35.539Z,94.09
2023-04-13T00:44:35.530Z,94.09
2023-04-13T00:45:35.519Z,93.88
2023-04-13T00:46:35.567Z,94.20
2023-04-13T00:47:35.609Z,94.09
2023-04-13T00:48:35.533Z,93.99
2023-04-13T00:49:35.490Z,93.88
2023-04-13T00:50:35.460Z,94.09
2023-04-13T00:51:35.452Z,94.20
2023-04-13T00:52:35.462Z,94.20
2023-04-13T00:53:35.443Z,94.20
2023-04-13T00:54:35.510Z,94.45
2023-04-13T00:55:35.402Z,93.99
2023-04-13T00:56:35.414Z,94.24
2023-04-13T00:57:35.412Z,94.20
2023-04-13T00:58:35.387Z,94.13
2023-04-13T00:59:35.382Z,94.30
2023-04-13T01:00:35.358Z,94.09
2023-04-13T01:01:35.413Z,94.30
2023-04-13T01:02:35.471Z,94.45
2023-04-13T01:03:35.353Z,94.34
2023-04-13T01:04:35.533Z,94.34
2023-04-13T01:05:36.437Z,94.13
2023-04-13T01:06:35.307Z,94.40
2023-04-13T01:07:35.273Z,94.40
2023-04-13T01:08:35.286Z,94.45
2023-04-13T01:09:35.245Z,94.03
2023-04-13T01:10:35.237Z,94.45
2023-04-13T01:11:35.220Z,94.34
2023-04-13T01:12:35.243Z,94.13
2023-04-13T01:13:35.204Z,94.24
2023-04-13T01:14:35.211Z,94.24
2023-04-13T01:15:35.212Z,94.13
2023-04-13T01:16:35.168Z,94.13
2023-04-13T01:17:35.192Z,94.03
2023-04-13T01:18:35.148Z,94.03
2023-04-13T01:19:35.129Z,94.45
2023-04-13T01:20:35.135Z,94.13
2023-04-13T01:21:35.128Z,93.93
2023-04-13T01:22:35.115Z,94.13
2023-04-13T01:23:35.083Z,94.03
2023-04-13T01:24:35.087Z,94.28
2023-04-13T01:25:35.076Z,94.13
2023-04-13T01:26:35.060Z,94.03
2023-04-13T01:27:35.061Z,93.93
2023-04-13T01:28:35.029Z,94.45
2023-04-13T01:29:35.015Z,94.03
2023-04-13T01:30:35.017Z,94.03
2023-04-13T01:31:35.082Z,94.08
2023-04-13T01:32:35.053Z,94.49
2023-04-13T01:33:34.969Z,94.03
2023-04-13T01:34:34.959Z,94.03
2023-04-13T01:35:34.956Z,94.13
2023-04-13T01:36:34.958Z,94.34
2023-04-13T01:37:34.943Z,94.28
2023-04-13T01:38:34.913Z,94.24
2023-04-13T01:39:34.901Z,94.24
2023-04-13T01:40:34.925Z,94.24
2023-04-13T01:41:34.895Z,94.08
2023-04-13T01:42:34.877Z,94.18
2023-04-13T01:43:34.855Z,94.18
2023-04-13T01:44:34.854Z,94.28
2023-04-13T01:45:34.890Z,94.18
2023-04-13T01:46:34.845Z,94.28
2023-04-13T01:47:34.862Z,94.38
2023-04-13T01:48:34.815Z,94.49
2023-04-13T01:49:34.785Z,94.08
2023-04-13T01:50:34.797Z,94.80
2023-04-13T01:51:34.818Z,94.80
2023-04-13T01:52:34.778Z,94.18
2023-04-13T01:53:34.742Z,94.08
2023-04-13T01:54:34.745Z,94.13
2023-04-13T01:55:34.740Z,94.90
2023-04-13T01:56:34.717Z,94.38
2023-04-13T01:57:34.695Z,94.65
2023-04-13T01:58:34.730Z,94.80
2023-04-13T01:59:34.684Z,94.80
2023-04-13T02:00:34.686Z,94.18
2023-04-13T02:01:34.661Z,94.28
2023-04-13T02:02:34.761Z,93.73
2023-04-13T02:03:34.696Z,93.93
2023-04-13T02:04:34.636Z,94.28
2023-04-13T02:05:34.613Z,93.93
2023-04-13T02:06:34.596Z,94.24
2023-04-13T02:07:34.586Z,94.13
2023-04-13T02:08:34.605Z,94.13
2023-04-13T02:09:34.575Z,94.34
2023-04-13T02:10:34.550Z,93.73
2023-04-13T02:11:34.556Z,93.98
2023-04-13T02:12:34.525Z,93.73
2023-04-13T02:13:34.511Z,93.25
2023-04-13T02:14:34.517Z,93.25
2023-04-13T02:15:34.507Z,93.35
2023-04-13T02:16:34.511Z,93.25
2023-04-13T02:17:34.484Z,92.74
2023-04-13T02:18:34.464Z,93.05
2023-04-13T02:19:34.460Z,93.05
2023-04-13T02:20:34.462Z,92.74
2023-04-13T02:21:34.418Z,92.94
2023-04-13T02:22:34.409Z,92.94
2023-04-13T02:23:34.405Z,92.33
2023-04-13T02:24:34.400Z,92.94
2023-04-13T02:25:34.390Z,92.12
2023-04-13T02:26:34.392Z,92.22
2023-04-13T02:27:34.372Z,92.53
2023-04-13T02:28:34.397Z,92.43
2023-04-13T02:29:34.332Z,92.47
2023-04-13T02:30:34.313Z,92.37
2023-04-13T02:31:34.338Z,92.37
2023-04-13T02:32:34.331Z,91.85
2023-04-13T02:33:34.298Z,91.64
2023-04-13T02:34:34.287Z,91.81
2023-04-13T02:35:35.605Z,91.54
2023-04-13T02:36:34.244Z,91.96
2023-04-13T02:37:34.233Z,92.27
2023-04-13T02:38:34.214Z,92.27
2023-04-13T02:39:34.212Z,91.96
2023-04-13T02:40:34.213Z,91.85
2023-04-13T02:41:34.214Z,91.75
2023-04-13T02:42:34.184Z,91.54
2023-04-13T02:43:34.180Z,92.16
2023-04-13T02:44:34.186Z,91.96
2023-04-13T02:45:34.203Z,92.27
2023-04-13T02:46:36.336Z,91.96
2023-04-13T02:47:34.144Z,91.28
2023-04-13T02:48:34.107Z,92.06
2023-04-13T02:49:34.123Z,91.44
2023-04-13T02:50:34.097Z,91.54
2023-04-13T02:51:34.094Z,91.75
2023-04-13T02:52:34.086Z,91.44
2023-04-13T02:53:34.090Z,91.58
2023-04-13T02:54:34.061Z,91.58
2023-04-13T02:55:34.044Z,91.75
2023-04-13T02:56:34.074Z,91.85
2023-04-13T02:57:33.996Z,92.16
2023-04-13T02:58:33.989Z,92.16
2023-04-13T02:59:34.072Z,91.79
2023-04-13T03:00:33.981Z,91.58
2023-04-13T03:01:33.986Z,92.10
2023-04-13T03:02:34.055Z,92.41
2023-04-13T03:03:33.934Z,92.47
2023-04-13T03:04:33.995Z,92.51
2023-04-13T03:05:33.948Z,92.51
2023-04-13T03:06:33.892Z,92.41
2023-04-13T03:07:33.879Z,91.79
2023-04-13T03:08:33.888Z,91.58
2023-04-13T03:09:33.856Z,91.79
2023-04-13T03:10:33.844Z,91.69
2023-04-13T03:11:33.850Z,91.79
2023-04-13T03:12:33.841Z,92.00
2023-04-13T03:13:33.837Z,92.61
2023-04-13T03:14:33.801Z,92.51
2023-04-13T03:15:33.792Z,92.10
2023-04-13T03:16:33.823Z,92.51
2023-04-13T03:17:33.812Z,92.21
2023-04-13T03:18:33.764Z,92.51
2023-04-13T03:19:33.744Z,92.61
2023-04-13T03:20:33.733Z,92.21
2023-04-13T03:21:33.742Z,92.51
2023-04-13T03:22:33.721Z,92.55
2023-04-13T03:23:33.700Z,92.51
2023-04-13T03:24:33.691Z,91.63
2023-04-13T03:25:34.166Z,91.89
2023-04-13T03:26:33.671Z,91.89
2023-04-13T03:27:33.676Z,91.73
2023-04-13T03:28:33.683Z,91.94
2023-04-13T03:29:33.653Z,91.63
2023-04-13T03:30:33.623Z,91.52
2023-04-13T03:31:33.632Z,91.83
2023-04-13T03:32:33.680Z,91.32
2023-04-13T03:33:33.604Z,91.22
2023-04-13T03:34:33.593Z,91.32
2023-04-13T03:35:33.568Z,91.32
2023-04-13T03:36:33.565Z,91.52
2023-04-13T03:37:41.220Z,90.91
2023-04-13T03:38:33.560Z,91.63
2023-04-13T03:39:42.223Z,90.80
2023-04-13T03:40:40.678Z,91.11
2023-04-13T03:41:41.280Z,91.01
2023-04-13T03:42:33.494Z,91.22
2023-04-13T03:43:33.476Z,91.22
2023-04-13T03:44:33.498Z,91.22
2023-04-13T03:45:33.449Z,91.22
2023-04-13T03:46:33.469Z,91.11
2023-04-13T03:47:33.517Z,90.59
2023-04-13T03:48:33.412Z,90.59
2023-04-13T03:49:33.423Z,90.59
2023-04-13T03:50:33.391Z,90.08
2023-04-13T03:51:33.391Z,90.19
2023-04-13T03:52:33.366Z,90.08
2023-04-13T03:53:33.350Z,90.08
2023-04-13T03:54:33.387Z,90.08
2023-04-13T03:55:33.371Z,89.87
2023-04-13T03:56:33.317Z,90.28
2023-04-13T03:57:33.315Z,90.08
2023-04-13T03:58:33.299Z,89.98
2023-04-13T03:59:33.284Z,89.98
2023-04-13T04:00:33.315Z,89.98
2023-04-13T04:01:33.262Z,90.08
2023-04-13T04:02:33.355Z,89.98
2023-04-13T04:03:33.375Z,90.12
2023-04-13T04:04:33.234Z,89.67
2023-04-13T04:05:33.233Z,89.61
2023-04-13T04:06:33.213Z,89.71
2023-04-13T04:07:33.212Z,89.61
2023-04-13T04:08:33.181Z,90.02
2023-04-13T04:09:33.178Z,90.02
2023-04-13T04:10:33.158Z,89.92
2023-04-13T04:11:33.168Z,89.71
2023-04-13T04:12:33.137Z,89.40
2023-04-13T04:13:33.128Z,89.81
2023-04-13T04:14:33.112Z,89.81
2023-04-13T04:15:33.163Z,89.71
2023-04-13T04:16:33.146Z,89.50
2023-04-13T04:17:33.119Z,89.65
2023-04-13T04:18:33.084Z,90.16
2023-04-13T04:19:33.135Z,89.86
2023-04-13T04:20:33.063Z,89.54
2023-04-13T04:21:33.040Z,89.71
2023-04-13T04:22:33.038Z,89.23
2023-04-13T04:23:33.405Z,89.95
2023-04-13T04:24:33.006Z,89.03
2023-04-13T04:25:32.989Z,89.23
2023-04-13T04:26:32.985Z,89.23
2023-04-13T04:27:32.988Z,88.82
2023-04-13T04:28:32.966Z,89.86
2023-04-13T04:29:32.945Z,89.34
2023-04-13T04:30:32.942Z,88.92
2023-04-13T04:31:34.145Z,88.92
2023-04-13T04:32:33.019Z,89.23
2023-04-13T04:33:32.902Z,89.03
2023-04-13T04:34:32.904Z,89.03
2023-04-13T04:35:32.871Z,88.92
2023-04-13T04:36:32.872Z,88.92
2023-04-13T04:37:32.854Z,89.03
2023-04-13T04:38:32.899Z,88.61
2023-04-13T04:39:32.918Z,88.92
2023-04-13T04:40:32.813Z,89.03
2023-04-13T04:41:32.811Z,88.20
2023-04-13T04:42:32.794Z,88.14
2023-04-13T04:43:32.830Z,87.89
2023-04-13T04:44:32.801Z,87.89
2023-04-13T04:45:32.786Z,87.89
2023-04-13T04:46:32.756Z,88.10
2023-04-13T04:47:32.795Z,87.79
2023-04-13T04:48:32.739Z,87.52
2023-04-13T04:49:32.729Z,87.48
2023-04-13T04:50:32.721Z,87.00
2023-04-13T04:51:32.696Z,86.59
2023-04-13T04:52:32.675Z,86.86
2023-04-13T04:53:32.664Z,86.79
2023-04-13T04:54:32.686Z,86.49
2023-04-13T04:55:32.647Z,86.55
2023-04-13T04:56:32.633Z,86.34
2023-04-13T04:57:32.628Z,86.59
2023-04-13T04:58:32.634Z,85.76
2023-04-13T04:59:32.590Z,85.45
2023-04-13T05:00:32.584Z,85.35
2023-04-13T05:01:32.700Z,85.66
2023-04-13T05:02:32.683Z,85.66
2023-04-13T05:03:32.571Z,86.38
2023-04-13T05:04:32.552Z,86.18
2023-04-13T05:05:32.586Z,86.28
2023-04-13T05:06:32.513Z,85.70
2023-04-13T05:07:32.520Z,85.28
2023-04-13T05:08:32.493Z,85.55
2023-04-13T05:09:32.496Z,85.97
2023-04-13T05:10:32.470Z,85.86
2023-04-13T05:11:32.493Z,85.70
2023-04-13T05:12:32.451Z,86.28
2023-04-13T05:13:32.433Z,86.18
2023-04-13T05:14:32.456Z,86.28
2023-04-13T05:15:32.411Z,86.38
2023-04-13T05:16:32.540Z,85.97
2023-04-13T05:17:32.439Z,85.35
2023-04-13T05:18:32.376Z,85.70
2023-04-13T05:19:32.394Z,85.55
2023-04-13T05:20:32.427Z,85.76
2023-04-13T05:21:32.361Z,86.21
2023-04-13T05:22:32.374Z,86.59
2023-04-13T05:23:32.382Z,86.38
2023-04-13T05:24:32.397Z,86.42
2023-04-13T05:25:32.295Z,86.59
2023-04-13T05:26:32.317Z,86.49
2023-04-13T05:27:32.276Z,86.59
2023-04-13T05:28:32.281Z,86.49
2023-04-13T05:29:32.258Z,86.49
2023-04-13T05:30:32.255Z,86.38
2023-04-13T05:31:32.319Z,86.59
2023-04-13T05:32:32.256Z,86.79
2023-04-13T05:33:32.222Z,86.90
2023-04-13T05:34:32.238Z,86.73
2023-04-13T05:35:32.193Z,86.07
2023-04-13T05:36:32.202Z,86.79
2023-04-13T05:37:32.198Z,86.83
2023-04-13T05:38:32.252Z,87.25
2023-04-13T05:39:32.192Z,86.94
2023-04-13T05:40:32.128Z,87.15
2023-04-13T05:41:32.117Z,87.35
2023-04-13T05:42:32.125Z,86.83
2023-04-13T05:43:32.096Z,87.25
2023-04-13T05:44:32.096Z,87.35
2023-04-13T05:45:32.144Z,87.00
2023-04-13T05:46:32.059Z,86.94
2023-04-13T05:47:32.104Z,86.73
2023-04-13T05:48:34.247Z,87.04
2023-04-13T05:49:32.050Z,86.83
2023-04-13T05:50:32.068Z,86.63
2023-04-13T05:51:32.023Z,86.63
2023-04-13T05:52:32.027Z,86.73
2023-04-13T05:53:31.982Z,87.25
2023-04-13T05:54:31.969Z,86.42
2023-04-13T05:55:31.965Z,86.73
2023-04-13T05:56:32.011Z,87.15
2023-04-13T05:57:31.936Z,87.56
2023-04-13T05:58:31.945Z,86.73
2023-04-13T05:59:31.914Z,86.94
2023-04-13T06:00:32.433Z,87.25
2023-04-13T06:01:31.911Z,87.25
2023-04-13T06:02:32.013Z,87.25
2023-04-13T06:03:32.064Z,87.35
2023-04-13T06:04:32.100Z,87.25
2023-04-13T06:05:31.859Z,86.73
2023-04-13T06:06:31.900Z,87.25
2023-04-13T06:07:31.853Z,87.04
2023-04-13T06:08:31.878Z,87.10
2023-04-13T06:09:31.794Z,86.79
2023-04-13T06:10:31.783Z,87.52
2023-04-13T06:11:31.772Z,87.10
2023-04-13T06:12:31.777Z,87.10
2023-04-13T06:13:31.803Z,86.90
2023-04-13T06:14:31.770Z,86.59
2023-04-13T06:15:31.760Z,86.69
2023-04-13T06:16:31.733Z,86.90
2023-04-13T06:17:31.742Z,86.69
2023-04-13T06:18:31.690Z,86.79
2023-04-13T06:19:31.686Z,86.90
2023-04-13T06:20:31.686Z,86.69
2023-04-13T06:21:31.664Z,86.90
2023-04-13T06:22:31.683Z,87.31
2023-04-13T06:23:31.632Z,87.21
2023-04-13T06:24:31.735Z,87.31
2023-04-13T06:25:31.645Z,86.59
2023-04-13T06:26:31.610Z,86.90
2023-04-13T06:27:31.591Z,86.79
2023-04-13T06:28:31.594Z,86.69
2023-04-13T06:29:31.565Z,87.27
2023-04-13T06:30:31.561Z,87.00
2023-04-13T06:31:31.596Z,86.76
2023-04-13T06:32:31.555Z,86.65
2023-04-13T06:33:31.576Z,86.65
2023-04-13T06:34:31.527Z,86.65
2023-04-13T06:35:31.574Z,86.86
2023-04-13T06:36:31.486Z,86.65
2023-04-13T06:37:31.535Z,86.55
2023-04-13T06:38:31.497Z,86.61
2023-04-13T06:39:32.905Z,86.65
2023-04-13T06:40:31.518Z,86.30
2023-04-13T06:41:31.437Z,86.41
2023-04-13T06:42:31.440Z,86.41
2023-04-13T06:43:31.439Z,86.30
2023-04-13T06:44:31.398Z,86.41
2023-04-13T06:45:31.382Z,86.61
2023-04-13T06:46:31.408Z,86.41
2023-04-13T06:47:31.407Z,86.41
2023-04-13T06:48:31.368Z,86.05
2023-04-13T06:49:31.358Z,85.54
2023-04-13T06:50:31.330Z,85.54
2023-04-13T06:51:31.313Z,86.05
2023-04-13T06:52:31.300Z,85.33
2023-04-13T06:53:31.291Z,86.16
2023-04-13T06:54:31.325Z,85.64
2023-04-13T06:55:31.267Z,85.75
2023-04-13T06:56:31.293Z,85.13
2023-04-13T06:57:31.270Z,85.64
2023-04-13T06:58:31.256Z,85.95
2023-04-13T06:59:31.246Z,85.13
2023-04-13T07:00:31.256Z,85.02
2023-04-13T07:01:31.299Z,85.09
2023-04-13T07:02:31.320Z,85.09
2023-04-13T07:03:31.320Z,85.30
2023-04-13T07:04:33.782Z,85.64
2023-04-13T07:05:31.171Z,85.33
2023-04-13T07:06:31.140Z,84.78
2023-04-13T07:07:31.150Z,84.81
2023-04-13T07:08:31.127Z,84.67
2023-04-13T07:09:31.108Z,84.57
2023-04-13T07:10:31.108Z,84.16
2023-04-13T07:11:31.089Z,84.57
2023-04-13T07:12:31.103Z,84.57
2023-04-13T07:13:31.783Z,84.88
2023-04-13T07:14:31.098Z,84.27
2023-04-13T07:15:31.149Z,84.47
2023-04-13T07:16:31.213Z,84.74
2023-04-13T07:17:31.133Z,84.64
2023-04-13T07:18:31.203Z,84.12
2023-04-13T07:19:31.013Z,83.50
2023-04-13T07:20:31.092Z,83.19
2023-04-13T07:21:30.971Z,82.98
2023-04-13T07:22:30.967Z,82.47
2023-04-13T07:23:30.945Z,82.43
2023-04-13T07:24:30.948Z,81.92
2023-04-13T07:25:30.956Z,82.70
2023-04-13T07:26:30.911Z,82.23
2023-04-13T07:27:30.911Z,81.88
2023-04-13T07:28:30.937Z,82.09
2023-04-13T07:29:30.910Z,80.95
2023-04-13T07:30:30.862Z,79.30
2023-04-13T07:31:30.897Z,78.48
2023-04-13T07:32:31.657Z,76.83
2023-04-13T07:33:30.893Z,77.97
2023-04-13T07:34:30.834Z,78.62
2023-04-13T07:35:30.814Z,78.72
2023-04-13T07:36:30.805Z,77.45
2023-04-13T07:37:32.069Z,76.15
2023-04-13T07:38:30.918Z,78.00
2023-04-13T07:39:30.762Z,78.17
2023-04-13T07:40:30.749Z,78.11
2023-04-13T07:41:30.747Z,78.41
2023-04-13T07:42:30.757Z,78.83
2023-04-13T07:43:30.714Z,78.21
2023-04-13T07:44:30.718Z,78.21
2023-04-13T07:45:30.691Z,78.21
2023-04-13T07:46:30.718Z,78.69
2023-04-13T07:47:30.689Z,78.69
2023-04-13T07:48:30.656Z,78.62
2023-04-13T07:49:30.644Z,77.28
2023-04-13T07:50:30.685Z,76.97
2023-04-13T07:51:30.624Z,76.46
2023-04-13T07:52:30.605Z,76.76
2023-04-13T07:53:30.616Z,76.76
2023-04-13T07:54:30.579Z,77.28
2023-04-13T07:55:30.573Z,78.21
2023-04-13T07:56:30.598Z,78.14
2023-04-13T07:57:30.551Z,78.34
2023-04-13T07:58:30.536Z,78.93
2023-04-13T07:59:30.701Z,78.62
2023-04-13T08:00:30.531Z,78.21
2023-04-13T08:01:30.501Z,77.80
2023-04-13T08:02:30.629Z,78.52
2023-04-13T08:03:30.636Z,78.89
2023-04-13T08:04:30.687Z,78.48
2023-04-13T08:05:30.565Z,78.58
2023-04-13T08:06:30.441Z,78.11
2023-04-13T08:07:30.449Z,78.38
2023-04-13T08:08:30.483Z,78.69
2023-04-13T08:09:30.411Z,78.07
2023-04-13T08:10:30.410Z,78.07
2023-04-13T08:11:30.413Z,77.83
2023-04-13T08:12:30.376Z,78.34
2023-04-13T08:13:30.396Z,77.04
2023-04-13T08:14:30.388Z,78.07
2023-04-13T08:15:30.379Z,77.93
2023-04-13T08:16:30.361Z,76.83
2023-04-13T08:17:30.350Z,76.21
2023-04-13T08:18:30.308Z,75.97
2023-04-13T08:19:30.296Z,76.79
2023-04-13T08:20:30.317Z,76.18
2023-04-13T08:21:30.274Z,77.93
2023-04-13T08:22:30.316Z,77.72
2023-04-13T08:23:30.255Z,76.07
2023-04-13T08:24:30.240Z,77.11
2023-04-13T08:25:30.234Z,78.14
2023-04-13T08:26:30.251Z,77.62
2023-04-13T08:27:30.231Z,78.14
2023-04-13T08:28:32.078Z,76.18
2023-04-13T08:29:30.188Z,78.10
2023-04-13T08:30:30.192Z,78.30
2023-04-13T08:31:30.244Z,76.56
2023-04-13T08:32:30.244Z,75.42
2023-04-13T08:33:30.138Z,75.73
2023-04-13T08:34:30.135Z,74.70
2023-04-13T08:35:30.137Z,75.94
2023-04-13T08:36:30.103Z,75.42
2023-04-13T08:37:30.104Z,75.42
2023-04-13T08:38:30.115Z,75.42
2023-04-13T08:39:30.066Z,76.66
2023-04-13T08:40:30.063Z,76.04
2023-04-13T08:41:30.052Z,74.91
2023-04-13T08:42:30.059Z,76.45
2023-04-13T08:43:30.046Z,76.21
2023-04-13T08:44:30.075Z,76.93
2023-04-13T08:45:29.998Z,76.31
2023-04-13T08:46:30.011Z,74.87
2023-04-13T08:47:30.003Z,74.77
2023-04-13T08:48:39.010Z,74.57
2023-04-13T08:49:30.952Z,75.59
2023-04-13T08:50:29.959Z,74.87
2023-04-13T08:51:29.937Z,74.57
2023-04-13T08:52:29.924Z,75.39
2023-04-13T08:53:29.975Z,76.21
2023-04-13T08:54:29.910Z,76.18
2023-04-13T08:55:29.894Z,75.15
2023-04-13T08:56:42.115Z,75.25
2023-04-13T08:57:30.885Z,73.91
2023-04-13T08:58:29.862Z,74.12
2023-04-13T08:59:29.903Z,75.56
2023-04-13T09:00:29.841Z,73.16
2023-04-13T09:01:30.149Z,73.57
2023-04-13T09:02:29.947Z,73.98
2023-04-13T09:03:29.995Z,72.75
2023-04-13T09:04:30.177Z,74.08
2023-04-13T09:05:29.771Z,73.98
2023-04-13T09:06:29.766Z,74.29
2023-04-13T09:07:29.769Z,72.65
2023-04-13T09:08:29.749Z,72.78
2023-04-13T09:09:29.723Z,72.78
2023-04-13T09:10:29.721Z,73.09
2023-04-13T09:11:29.728Z,72.89
2023-04-13T09:12:29.916Z,73.91
2023-04-13T09:13:29.673Z,74.63
2023-04-13T09:14:31.528Z,74.33
2023-04-13T09:15:29.689Z,74.22
2023-04-13T09:16:29.704Z,74.84
2023-04-13T09:17:29.744Z,73.91
2023-04-13T09:18:29.620Z,74.29
2023-04-13T09:19:29.625Z,73.98
2023-04-13T09:20:29.623Z,72.55
2023-04-13T09:21:29.586Z,72.47
2023-04-13T09:22:29.581Z,72.47
2023-04-13T09:23:29.561Z,73.19
2023-04-13T09:24:29.575Z,73.30
2023-04-13T09:25:29.547Z,72.78
2023-04-13T09:26:29.546Z,74.43
2023-04-13T09:27:29.537Z,74.02
2023-04-13T09:28:29.506Z,73.19
2023-04-13T09:29:29.493Z,74.22
2023-04-13T09:30:29.494Z,73.19
2023-04-13T09:31:29.538Z,72.38
2023-04-13T09:32:29.510Z,72.78
2023-04-13T09:33:29.449Z,72.58
2023-04-13T09:34:29.448Z,73.61
2023-04-13T09:35:29.428Z,74.02
2023-04-13T09:36:29.460Z,73.61
2023-04-13T09:37:29.463Z,73.81
2023-04-13T09:38:29.393Z,74.22
2023-04-13T09:39:29.498Z,73.81
2023-04-13T09:40:29.454Z,72.78
2023-04-13T09:41:29.386Z,73.81
2023-04-13T09:42:29.367Z,73.40
2023-04-13T09:43:29.364Z,74.22
2023-04-13T09:44:29.351Z,74.19
2023-04-13T09:45:29.337Z,73.71
2023-04-13T09:46:29.368Z,73.36
2023-04-13T09:47:29.306Z,72.85
2023-04-13T09:48:29.279Z,73.06
2023-04-13T09:49:29.300Z,73.06
2023-04-13T09:50:29.264Z,74.29
2023-04-13T09:51:29.247Z,74.40
2023-04-13T09:52:29.251Z,74.19
2023-04-13T09:53:29.249Z,72.55
2023-04-13T09:54:29.254Z,72.85
2023-04-13T09:55:29.211Z,71.96
2023-04-13T09:56:29.191Z,72.17
2023-04-13T09:57:29.173Z,72.17
2023-04-13T09:58:29.184Z,73.50
2023-04-13T09:59:29.154Z,73.81
2023-04-13T10:00:29.144Z,74.22
2023-04-13T10:01:29.167Z,74.19
2023-04-13T10:02:29.443Z,73.85
2023-04-13T10:03:29.186Z,73.64
2023-04-13T10:04:29.103Z,73.23
2023-04-13T10:05:29.330Z,72.72
2023-04-13T10:06:29.079Z,72.92
2023-04-13T10:07:29.098Z,72.99
2023-04-13T10:08:37.472Z,73.30
2023-04-13T10:09:30.035Z,72.68
2023-04-13T10:10:29.026Z,73.10
2023-04-13T10:11:29.016Z,72.48
2023-04-13T10:12:29.022Z,73.10
2023-04-13T10:13:29.004Z,71.25
2023-04-13T10:14:29.001Z,72.27
2023-04-13T10:15:28.973Z,71.66
2023-04-13T10:16:29.064Z,71.66
2023-04-13T10:17:29.077Z,72.99
2023-04-13T10:18:29.008Z,72.24
2023-04-13T10:19:28.937Z,72.65
2023-04-13T10:20:28.933Z,73.02
2023-04-13T10:21:28.919Z,72.89
2023-04-13T10:22:28.891Z,70.60
2023-04-13T10:23:28.879Z,69.47
2023-04-13T10:24:28.913Z,69.68
2023-04-13T10:25:33.901Z,72.03
2023-04-13T10:26:29.844Z,70.16
2023-04-13T10:27:28.844Z,69.44
2023-04-13T10:28:28.842Z,68.08
2023-04-13T10:29:28.812Z,69.34
2023-04-13T10:30:28.802Z,70.64
2023-04-13T10:31:28.888Z,68.08
2023-04-13T10:32:28.864Z,70.20
2023-04-13T10:33:28.787Z,67.26
2023-04-13T10:34:28.755Z,67.46
2023-04-13T10:35:28.744Z,67.40
2023-04-13T10:36:28.731Z,67.70
2023-04-13T10:37:28.887Z,67.90
2023-04-13T10:38:28.708Z,69.44
2023-04-13T10:39:28.710Z,69.95
2023-04-13T10:40:28.730Z,69.20
2023-04-13T10:41:28.699Z,67.97
2023-04-13T10:42:28.675Z,69.31
2023-04-13T10:43:28.662Z,66.54
2023-04-13T10:44:28.639Z,69.31
2023-04-13T10:45:28.682Z,68.18
2023-04-13T10:46:28.638Z,68.38
2023-04-13T10:47:28.733Z,67.87
2023-04-13T10:48:28.607Z,67.77
2023-04-13T10:49:28.607Z,69.51
2023-04-13T10:50:28.564Z,67.87
2023-04-13T10:51:30.739Z,67.87
2023-04-13T10:52:28.575Z,69.27
2023-04-13T10:53:28.568Z,67.57
2023-04-13T10:54:28.532Z,67.87
2023-04-13T10:55:28.506Z,68.38
2023-04-13T10:56:28.520Z,67.57
2023-04-13T10:57:28.508Z,68.28
2023-04-13T10:58:30.015Z,69.20
2023-04-13T10:59:28.478Z,69.58
2023-04-13T11:00:44.218Z,68.76
2023-04-13T11:01:29.457Z,69.99
2023-04-13T11:02:28.494Z,69.38
2023-04-13T11:03:28.483Z,69.38
2023-04-13T11:04:28.487Z,67.84
2023-04-13T11:05:28.422Z,69.96
2023-04-13T11:06:28.389Z,68.52
2023-04-13T11:07:28.373Z,67.30
2023-04-13T11:08:28.516Z,66.78
2023-04-13T11:09:28.352Z,68.52
2023-04-13T11:10:28.377Z,69.65
2023-04-13T11:11:28.325Z,70.06
2023-04-13T11:12:28.340Z,69.45
2023-04-13T11:13:28.312Z,69.24
2023-04-13T11:14:28.293Z,68.22
2023-04-13T11:15:28.314Z,67.60
2023-04-13T11:16:28.322Z,67.71
2023-04-13T11:17:28.648Z,67.60
2023-04-13T11:18:28.254Z,65.77
2023-04-13T11:19:28.248Z,65.77
2023-04-13T11:20:28.253Z,66.69
2023-04-13T11:21:28.210Z,67.60
2023-04-13T11:22:28.213Z,66.10
2023-04-13T11:23:28.200Z,65.59
2023-04-13T11:24:28.186Z,65.90
2023-04-13T11:25:28.187Z,65.80
2023-04-13T11:26:28.152Z,66.99
2023-04-13T11:27:28.158Z,66.61
2023-04-13T11:28:28.156Z,66.51
2023-04-13T11:29:28.118Z,67.43
2023-04-13T11:30:28.128Z,66.10
2023-04-13T11:31:28.128Z,66.61
2023-04-13T11:32:28.204Z,66.85
2023-04-13T11:33:28.071Z,68.05
2023-04-13T11:34:28.082Z,67.64
2023-04-13T11:35:28.087Z,68.76
2023-04-13T11:36:28.040Z,67.60
2023-04-13T11:37:28.050Z,66.20
2023-04-13T11:38:28.036Z,66.31
2023-04-13T11:39:28.000Z,66.82
2023-04-13T11:40:28.003Z,67.23
2023-04-13T11:41:27.977Z,66.92
2023-04-13T11:42:27.989Z,67.54
2023-04-13T11:43:27.976Z,67.43
2023-04-13T11:44:27.959Z,67.23
2023-04-13T11:45:27.930Z,66.41
2023-04-13T11:46:27.982Z,67.84
2023-04-13T11:47:27.919Z,67.33
2023-04-13T11:48:27.923Z,67.64
2023-04-13T11:49:27.906Z,67.13
2023-04-13T11:50:27.887Z,66.82
2023-04-13T11:51:27.858Z,65.90
2023-04-13T11:52:27.866Z,65.80
2023-04-13T11:53:27.862Z,67.84
2023-04-13T11:54:27.847Z,67.43
2023-04-13T11:55:27.817Z,67.74
2023-04-13T11:56:27.819Z,67.23
2023-04-13T11:57:27.799Z,67.05
2023-04-13T11:58:27.814Z,65.31
2023-04-13T11:59:27.769Z,65.62
2023-04-13T12:00:27.793Z,66.34
2023-04-13T12:01:33.608Z,67.46
2023-04-13T12:03:42.059Z,68.84
2023-04-13T12:04:28.877Z,70.34
2023-04-13T12:05:27.867Z,67.54
2023-04-13T12:06:28.103Z,67.34
2023-04-13T12:07:28.188Z,67.24
2023-04-13T12:08:28.133Z,65.67
2023-04-13T12:09:54.546Z,65.37
2023-04-13T12:10:38.199Z,66.59
2023-04-13T12:16:45.263Z,61.76
2023-04-13T12:17:39.170Z,61.97
2023-04-13T12:18:34.282Z,61.38
2023-04-13T12:19:30.283Z,63.53
2023-04-13T12:20:27.681Z,63.63
2023-04-13T12:21:28.922Z,64.07
2023-04-13T12:22:27.622Z,64.48
2023-04-13T12:23:28.059Z,64.07
2023-04-13T12:24:30.397Z,64.07
2023-04-13T12:25:35.686Z,64.10
2023-04-13T12:27:14.946Z,63.51
2023-04-13T12:27:28.449Z,64.74
2023-04-13T12:28:27.451Z,62.80
2023-04-13T12:29:27.433Z,63.21
2023-04-13T12:30:27.416Z,63.92
2023-04-13T12:31:27.441Z,63.10
2023-04-13T12:32:27.458Z,61.88
2023-04-13T12:33:27.396Z,62.70
2023-04-13T12:34:27.366Z,61.47
2023-04-13T12:35:27.387Z,62.90
2023-04-13T12:36:27.362Z,64.16
2023-04-13T12:37:27.330Z,64.77
2023-04-13T12:38:27.341Z,65.49
2023-04-13T12:39:27.331Z,64.67
2023-04-13T12:40:27.319Z,66.51
2023-04-13T12:41:27.312Z,64.67
2023-04-13T12:42:27.273Z,64.47
2023-04-13T12:43:27.327Z,65.39
2023-04-13T12:44:27.253Z,66.51
2023-04-13T12:45:27.254Z,65.69
2023-04-13T12:46:27.264Z,65.31
2023-04-13T12:47:27.304Z,64.70
2023-04-13T12:48:27.231Z,64.60
2023-04-13T12:49:27.193Z,65.11
2023-04-13T12:50:27.179Z,65.21
2023-04-13T12:51:27.217Z,65.83
2023-04-13T12:52:27.161Z,66.31
2023-04-13T12:53:27.171Z,66.54
2023-04-13T12:54:27.136Z,67.57
2023-04-13T12:55:27.146Z,65.90
2023-04-13T12:56:27.156Z,67.13
2023-04-13T12:57:27.128Z,65.18
2023-04-13T12:58:27.116Z,65.59